createdAt,value
2023-03-22T00:01:46.890Z,68.72
2023-03-22T00:04:55.249Z,69.12
2023-03-22T00:08:20.513Z,68.75
2023-03-22T00:11:37.755Z,68.85
2023-03-22T00:15:12.745Z,68.93
2023-03-22T00:18:23.656Z,68.96
2023-03-22T00:21:52.949Z,69.25
2023-03-22T00:24:56.642Z,69.14
2023-03-22T00:31:57.635Z,69.88
2023-03-22T00:35:14.434Z,69.78
2023-03-22T00:38:18.179Z,70.43
2023-03-22T00:41:26.391Z,70.40
2023-03-22T00:44:55.820Z,72.14
2023-03-22T00:48:15.390Z,70.28
2023-03-22T00:51:25.739Z,70.50
2023-03-22T00:54:38.149Z,70.15
2023-03-22T00:58:06.120Z,70.03
2023-03-22T01:01:10.486Z,70.21
2023-03-22T01:04:27.980Z,70.07
2023-03-22T01:07:42.473Z,70.30
2023-03-22T01:10:47.181Z,70.33
2023-03-22T01:14:11.205Z,70.64
2023-03-22T01:17:16.077Z,69.88
2023-03-22T01:20:25.126Z,69.90
2023-03-22T01:23:31.956Z,70.45
2023-03-22T01:26:39.845Z,70.42
2023-03-22T01:29:45.086Z,69.75
2023-03-22T01:32:48.986Z,70.35
2023-03-22T01:35:54.777Z,70.43
2023-03-22T01:39:03.515Z,68.84
2023-03-22T01:42:21.455Z,69.04
2023-03-22T01:45:39.032Z,67.68
2023-03-22T01:48:47.980Z,68.98
2023-03-22T01:51:56.954Z,68.86
2023-03-22T01:55:27.142Z,68.31
2023-03-22T01:58:44.686Z,68.63
2023-03-22T02:01:50.877Z,68.35
2023-03-22T02:04:58.739Z,67.96
2023-03-22T02:08:05.717Z,66.84
2023-03-22T02:11:34.878Z,67.59
2023-03-22T02:15:04.949Z,65.11
2023-03-22T02:18:50.225Z,65.78
2023-03-22T02:22:33.264Z,63.58
2023-03-22T02:26:12.022Z,64.39
2023-03-22T02:29:24.631Z,63.37
2023-03-22T02:32:57.425Z,63.20
2023-03-22T02:36:35.712Z,61.48
2023-03-22T02:40:23.886Z,60.39
2023-03-22T02:43:39.307Z,59.42
2023-03-22T02:47:10.314Z,59.27
2023-03-22T02:50:30.212Z,59.30
2023-03-22T02:54:06.277Z,57.50
2023-03-22T02:57:49.068Z,58.54
2023-03-22T03:00:59.694Z,59.39
2023-03-22T03:04:08.365Z,58.14
2023-03-22T03:07:20.326Z,56.92
2023-03-22T03:10:25.140Z,57.19
2023-03-22T03:13:37.524Z,58.02
2023-03-22T03:16:44.193Z,58.90
2023-03-22T03:20:18.355Z,57.42
2023-03-22T03:23:52.990Z,58.20
2023-03-22T03:27:26.642Z,59.03
2023-03-22T03:30:54.493Z,57.83
2023-03-22T03:34:23.376Z,58.98
2023-03-22T03:38:40.125Z,59.80
2023-03-22T03:41:34.096Z,60.07
2023-03-22T03:44:41.854Z,59.86
2023-03-22T03:48:03.525Z,59.25
2023-03-22T03:51:07.900Z,60.36
2023-03-22T03:54:26.891Z,57.69
2023-03-22T03:57:31.341Z,57.95
2023-03-22T04:04:14.909Z,56.97
2023-03-22T04:07:28.484Z,55.94
2023-03-22T04:10:38.059Z,56.99
2023-03-22T04:13:42.818Z,55.92
2023-03-22T04:18:06.310Z,56.18
2023-03-22T04:21:32.840Z,55.33
2023-03-22T04:24:38.792Z,55.54
2023-03-22T04:27:43.770Z,54.93
2023-03-22T04:38:33.458Z,54.33
2023-03-22T04:41:51.472Z,55.64
2023-03-22T04:45:30.900Z,55.25
2023-03-22T04:48:43.550Z,54.18
2023-03-22T04:51:48.500Z,55.45
2023-03-22T04:55:06.001Z,55.41
2023-03-22T04:58:31.382Z,56.35
2023-03-22T05:01:36.224Z,55.14
2023-03-22T05:04:56.896Z,55.11
2023-03-22T05:08:17.106Z,54.53
2023-03-22T05:11:28.816Z,55.93
2023-03-22T05:14:53.316Z,57.05
2023-03-22T05:18:03.878Z,57.00
2023-03-22T05:21:07.883Z,56.50
2023-03-22T05:24:17.294Z,58.81
2023-03-22T05:27:33.699Z,58.29
2023-03-22T05:31:10.866Z,56.06
2023-03-22T05:34:56.754Z,57.31
2023-03-22T05:38:12.909Z,58.94
2023-03-22T05:41:49.083Z,57.78
2023-03-22T05:45:21.857Z,56.43
2023-03-22T05:48:37.108Z,58.69
2023-03-22T05:51:43.473Z,60.26
2023-03-22T05:54:53.038Z,58.22
2023-03-22T05:58:09.281Z,57.06
2023-03-22T06:01:21.268Z,57.17
2023-03-22T06:05:14.949Z,57.01
2023-03-22T06:08:31.008Z,55.51
2023-03-22T06:12:28.880Z,55.90
2023-03-22T06:16:11.544Z,55.54
2023-03-22T06:19:20.819Z,54.96
2023-03-22T06:22:26.175Z,54.38
2023-03-22T06:25:35.486Z,55.33
2023-03-22T06:29:17.090Z,58.08
2023-03-22T06:32:30.705Z,56.55
2023-03-22T06:35:37.828Z,57.41
2023-03-22T06:38:55.823Z,57.43
2023-03-22T06:42:02.753Z,58.20
2023-03-22T06:45:10.345Z,56.85
2023-03-22T06:48:17.879Z,57.54
2023-03-22T06:51:48.051Z,56.67
2023-03-22T06:55:00.126Z,58.61
2023-03-22T06:58:04.722Z,58.91
2023-03-22T07:01:08.881Z,58.93
2023-03-22T07:04:29.928Z,58.69
2023-03-22T07:07:33.829Z,58.03
2023-03-22T07:10:45.755Z,56.98
2023-03-22T07:13:55.202Z,56.75
2023-03-22T07:17:42.698Z,57.65
2023-03-22T07:20:47.367Z,57.19
2023-03-22T07:24:18.311Z,57.35
2023-03-22T07:27:55.528Z,59.31
2023-03-22T07:32:07.925Z,59.38
2023-03-22T07:39:27.392Z,63.91
2023-03-22T07:42:38.276Z,64.88
2023-03-22T07:46:26.799Z,64.83
2023-03-22T07:50:07.733Z,64.77
2023-03-22T07:53:17.691Z,65.12
2023-03-22T07:56:50.854Z,66.81
2023-03-22T07:59:57.960Z,66.16
2023-03-22T08:03:12.205Z,66.23
2023-03-22T08:06:41.540Z,66.46
2023-03-22T08:10:10.995Z,66.99
2023-03-22T08:13:29.013Z,67.26
2023-03-22T08:16:46.766Z,66.96
2023-03-22T08:20:31.637Z,67.47
2023-03-22T08:24:17.767Z,68.84
2023-03-22T08:31:56.416Z,69.44
2023-03-22T08:35:03.186Z,70.62
2023-03-22T08:38:32.238Z,71.10
2023-03-22T08:42:10.418Z,70.86
2023-03-22T08:45:22.716Z,70.80
2023-03-22T08:48:37.197Z,71.56
2023-03-22T08:55:50.153Z,72.47
2023-03-22T08:59:14.248Z,74.40
2023-03-22T09:02:30.860Z,74.14
2023-03-22T09:05:42.362Z,73.92
2023-03-22T09:08:55.496Z,73.17
2023-03-22T09:12:03.195Z,74.46
2023-03-22T09:15:25.563Z,74.03
2023-03-22T09:18:44.890Z,73.24
2023-03-22T09:22:02.150Z,73.57
2023-03-22T09:25:53.404Z,73.84
2023-03-22T09:29:05.915Z,73.20
2023-03-22T09:32:37.500Z,73.85
2023-03-22T09:35:48.973Z,73.82
2023-03-22T09:39:11.443Z,74.85
2023-03-22T09:42:57.136Z,74.40
2023-03-22T09:46:07.223Z,74.94
2023-03-22T09:49:52.852Z,75.17
2023-03-22T09:53:03.362Z,75.43
2023-03-22T09:56:24.237Z,75.77
2023-03-22T09:59:53.970Z,75.05
2023-03-22T10:03:21.583Z,76.12
2023-03-22T10:06:29.572Z,75.81
2023-03-22T10:10:10.630Z,76.13
2023-03-22T10:13:43.100Z,75.52
2023-03-22T10:17:19.536Z,75.59
2023-03-22T10:21:08.729Z,76.14
2023-03-22T10:28:48.528Z,75.77
2023-03-22T10:36:20.362Z,75.48
2023-03-22T10:40:04.946Z,76.00
2023-03-22T10:43:26.868Z,76.18
2023-03-22T10:54:26.076Z,76.07
2023-03-22T11:01:16.053Z,76.52
2023-03-22T11:13:28.026Z,76.67
2023-03-22T11:17:35.254Z,76.77
2023-03-22T11:20:53.476Z,77.59
2023-03-22T11:24:05.629Z,77.15
2023-03-22T11:31:25.571Z,76.73
2023-03-22T11:34:50.276Z,77.26
2023-03-22T11:47:01.381Z,77.31
2023-03-22T11:50:45.072Z,78.13
2023-03-22T11:58:44.071Z,76.25
2023-03-22T12:07:39.878Z,77.19
2023-03-22T12:11:48.777Z,77.20
2023-03-22T12:15:49.398Z,77.39
2023-03-22T12:19:18.561Z,75.54
2023-03-22T12:22:56.521Z,75.54
2023-03-22T12:26:12.628Z,76.08
2023-03-22T12:33:16.169Z,75.74
2023-03-22T12:40:22.026Z,75.58
2023-03-22T12:43:59.227Z,74.99
2023-03-22T12:47:21.346Z,75.14
2023-03-22T12:50:44.545Z,75.73
2023-03-22T12:54:18.332Z,75.40
2023-03-22T12:57:31.758Z,75.64
2023-03-22T13:01:28.937Z,75.87
2023-03-22T13:04:39.450Z,76.26
2023-03-22T13:08:11.971Z,75.81
2023-03-22T13:11:30.024Z,75.00
2023-03-22T13:15:40.367Z,75.59
2023-03-22T13:20:38.491Z,76.33
2023-03-22T13:24:09.088Z,76.47
2023-03-22T13:27:45.061Z,76.81
2023-03-22T13:30:58.529Z,76.49
2023-03-22T13:39:25.898Z,75.90
2023-03-22T13:44:54.834Z,76.08
2023-03-22T13:47:04.178Z,76.42
2023-03-22T13:50:25.720Z,76.66
2023-03-22T13:54:21.643Z,76.44
2023-03-22T14:06:46.887Z,76.29
2023-03-22T14:10:16.561Z,75.55
2023-03-22T14:14:03.557Z,75.24
2023-03-22T14:17:35.656Z,75.25
2023-03-22T14:20:55.688Z,75.12
